EAR weather

Kearney Regional Airport
Kearney, Nebraska, United States

Public forecast

Using degrees Fahrenheit for public forecast. Weather courtesy of forecast.io.

Current aviation weather report (METAR) for Kearney Regional Airport

Retrieved 2019/12/15 18:10 UTC (0 seconds ago):

KEAR 151810Z AUTO 00000KT 10SM BKN010 OVC018 M05/M08 A2996

Aviation forecast (TAF) for Kearney Regional Airport

Retrieved 2019/12/15 18:39 UTC (0 seconds ago):

TAF KEAR 151736Z 1518/1618 17006KT P6SM VCSH OVC015 FM151900 20005KT P6SM OVC016 FM152300 VRB03KT P6SM BKN035 FM160600 VRB04KT 6SM BR OVC025 FM161500 31005KT P6SM BKN035